sensor_id;sensor_type;location;lat;lon;timestamp;P1;durP1;ratioP1;P2;durP2;ratioP2
37851;SDS011;23691;52.486;4.650;2022-12-18T00:02:03;66.55;;;21.63;;
37851;SDS011;23691;52.486;4.650;2022-12-18T00:04:28;72.65;;;23.83;;
37851;SDS011;23691;52.486;4.650;2022-12-18T00:06:54;66.72;;;22.55;;
37851;SDS011;23691;52.486;4.650;2022-12-18T00:09:20;86.82;;;24.75;;
37851;SDS011;23691;52.486;4.650;2022-12-18T00:11:45;70.40;;;22.38;;
37851;SDS011;23691;52.486;4.650;2022-12-18T00:14:13;81.47;;;23.45;;
37851;SDS011;23691;52.486;4.650;2022-12-18T00:16:39;74.00;;;23.38;;
37851;SDS011;23691;52.486;4.650;2022-12-18T00:19:05;74.45;;;22.70;;
37851;SDS011;23691;52.486;4.650;2022-12-18T00:21:32;62.90;;;21.80;;
37851;SDS011;23691;52.486;4.650;2022-12-18T00:23:58;73.30;;;21.85;;
37851;SDS011;23691;52.486;4.650;2022-12-18T00:26:26;62.83;;;20.80;;
37851;SDS011;23691;52.486;4.650;2022-12-18T00:28:53;71.13;;;22.55;;
37851;SDS011;23691;52.486;4.650;2022-12-18T00:31:23;60.20;;;20.10;;
37851;SDS011;23691;52.486;4.650;2022-12-18T00:33:49;73.13;;;23.50;;
37851;SDS011;23691;52.486;4.650;2022-12-18T00:36:17;67.38;;;20.00;;
37851;SDS011;23691;52.486;4.650;2022-12-18T00:38:45;68.07;;;21.45;;
37851;SDS011;23691;52.486;4.650;2022-12-18T00:41:12;64.03;;;20.30;;
37851;SDS011;23691;52.486;4.650;2022-12-18T00:43:59;65.13;;;19.20;;
37851;SDS011;23691;52.486;4.650;2022-12-18T00:46:25;64.88;;;20.88;;
37851;SDS011;23691;52.486;4.650;2022-12-18T00:48:50;69.30;;;21.10;;
37851;SDS011;23691;52.486;4.650;2022-12-18T00:51:16;69.22;;;22.00;;
37851;SDS011;23691;52.486;4.650;2022-12-18T00:53:41;66.72;;;21.23;;
37851;SDS011;23691;52.486;4.650;2022-12-18T00:56:06;65.43;;;20.45;;
37851;SDS011;23691;52.486;4.650;2022-12-18T00:58:37;69.43;;;21.63;;
37851;SDS011;23691;52.486;4.650;2022-12-18T01:01:04;73.85;;;22.00;;
37851;SDS011;23691;52.486;4.650;2022-12-18T01:03:30;62.47;;;19.63;;
37851;SDS011;23691;52.486;4.650;2022-12-18T01:05:55;63.72;;;21.02;;
37851;SDS011;23691;52.486;4.650;2022-12-18T01:08:21;65.25;;;21.35;;
37851;SDS011;23691;52.486;4.650;2022-12-18T01:10:47;70.60;;;21.10;;
37851;SDS011;23691;52.486;4.650;2022-12-18T01:13:12;65.28;;;20.77;;
37851;SDS011;23691;52.486;4.650;2022-12-18T01:15:38;68.03;;;20.20;;
37851;SDS011;23691;52.486;4.650;2022-12-18T01:18:03;59.83;;;20.13;;
37851;SDS011;23691;52.486;4.650;2022-12-18T01:20:28;68.03;;;20.23;;
37851;SDS011;23691;52.486;4.650;2022-12-18T01:22:54;66.05;;;20.83;;
37851;SDS011;23691;52.486;4.650;2022-12-18T01:25:19;62.13;;;20.45;;
37851;SDS011;23691;52.486;4.650;2022-12-18T01:27:45;66.10;;;20.70;;
37851;SDS011;23691;52.486;4.650;2022-12-18T01:30:10;68.68;;;21.23;;
37851;SDS011;23691;52.486;4.650;2022-12-18T01:32:36;63.97;;;19.00;;
37851;SDS011;23691;52.486;4.650;2022-12-18T01:35:01;58.05;;;19.95;;
37851;SDS011;23691;52.486;4.650;2022-12-18T01:37:27;67.82;;;20.85;;
37851;SDS011;23691;52.486;4.650;2022-12-18T01:39:52;61.78;;;19.27;;
37851;SDS011;23691;52.486;4.650;2022-12-18T01:42:19;59.95;;;19.73;;
37851;SDS011;23691;52.486;4.650;2022-12-18T01:50:10;62.47;;;19.73;;
37851;SDS011;23691;52.486;4.650;2022-12-18T01:52:38;57.75;;;18.27;;
37851;SDS011;23691;52.486;4.650;2022-12-18T01:55:07;61.50;;;19.38;;
37851;SDS011;23691;52.486;4.650;2022-12-18T01:57:34;61.30;;;20.50;;
37851;SDS011;23691;52.486;4.650;2022-12-18T02:00:02;69.20;;;20.20;;
37851;SDS011;23691;52.486;4.650;2022-12-18T02:02:36;64.80;;;21.60;;
37851;SDS011;23691;52.486;4.650;2022-12-18T02:05:02;67.10;;;21.08;;
37851;SDS011;23691;52.486;4.650;2022-12-18T02:07:35;66.28;;;21.23;;
37851;SDS011;23691;52.486;4.650;2022-12-18T02:13:06;62.47;;;19.23;;
37851;SDS011;23691;52.486;4.650;2022-12-18T02:18:13;61.50;;;17.83;;
37851;SDS011;23691;52.486;4.650;2022-12-18T02:20:49;66.38;;;20.38;;
37851;SDS011;23691;52.486;4.650;2022-12-18T02:26:36;51.78;;;18.73;;
37851;SDS011;23691;52.486;4.650;2022-12-18T02:29:24;56.45;;;18.55;;
37851;SDS011;23691;52.486;4.650;2022-12-18T02:31:54;59.63;;;17.80;;
37851;SDS011;23691;52.486;4.650;2022-12-18T02:34:28;64.75;;;19.58;;
37851;SDS011;23691;52.486;4.650;2022-12-18T02:36:56;66.38;;;19.35;;
37851;SDS011;23691;52.486;4.650;2022-12-18T02:39:25;72.82;;;20.50;;
37851;SDS011;23691;52.486;4.650;2022-12-18T02:41:53;65.90;;;20.98;;
37851;SDS011;23691;52.486;4.650;2022-12-18T02:44:19;68.38;;;21.27;;
37851;SDS011;23691;52.486;4.650;2022-12-18T02:55:23;63.55;;;19.67;;
37851;SDS011;23691;52.486;4.650;2022-12-18T03:00:24;54.30;;;17.35;;
37851;SDS011;23691;52.486;4.650;2022-12-18T03:05:33;57.15;;;18.48;;
37851;SDS011;23691;52.486;4.650;2022-12-18T03:08:14;53.00;;;17.13;;
37851;SDS011;23691;52.486;4.650;2022-12-18T03:10:51;49.63;;;17.60;;
37851;SDS011;23691;52.486;4.650;2022-12-18T03:13:28;52.65;;;17.92;;
37851;SDS011;23691;52.486;4.650;2022-12-18T03:15:56;54.65;;;18.45;;
37851;SDS011;23691;52.486;4.650;2022-12-18T03:18:32;52.28;;;18.48;;
37851;SDS011;23691;52.486;4.650;2022-12-18T03:21:07;54.10;;;16.65;;
37851;SDS011;23691;52.486;4.650;2022-12-18T03:23:37;56.72;;;18.17;;
37851;SDS011;23691;52.486;4.650;2022-12-18T03:26:10;51.03;;;17.58;;
37851;SDS011;23691;52.486;4.650;2022-12-18T03:28:42;54.38;;;17.98;;
37851;SDS011;23691;52.486;4.650;2022-12-18T03:31:12;52.20;;;16.45;;
37851;SDS011;23691;52.486;4.650;2022-12-18T03:33:41;56.50;;;18.50;;
37851;SDS011;23691;52.486;4.650;2022-12-18T03:36:12;54.42;;;17.58;;
37851;SDS011;23691;52.486;4.650;2022-12-18T03:38:37;53.20;;;17.85;;
37851;SDS011;23691;52.486;4.650;2022-12-18T03:41:07;52.78;;;16.80;;
37851;SDS011;23691;52.486;4.650;2022-12-18T03:43:52;50.47;;;17.60;;
37851;SDS011;23691;52.486;4.650;2022-12-18T03:46:33;51.40;;;16.40;;
37851;SDS011;23691;52.486;4.650;2022-12-18T03:49:13;52.30;;;15.93;;
37851;SDS011;23691;52.486;4.650;2022-12-18T03:54:15;51.50;;;16.73;;
37851;SDS011;23691;52.486;4.650;2022-12-18T03:56:47;54.75;;;17.50;;
37851;SDS011;23691;52.486;4.650;2022-12-18T03:59:16;50.60;;;16.80;;
37851;SDS011;23691;52.486;4.650;2022-12-18T04:01:46;51.15;;;16.95;;
37851;SDS011;23691;52.486;4.650;2022-12-18T04:04:14;49.88;;;16.52;;
37851;SDS011;23691;52.486;4.650;2022-12-18T04:06:42;58.28;;;20.30;;
37851;SDS011;23691;52.486;4.650;2022-12-18T04:09:10;50.85;;;17.52;;
37851;SDS011;23691;52.486;4.650;2022-12-18T04:11:35;53.03;;;17.95;;
37851;SDS011;23691;52.486;4.650;2022-12-18T04:14:01;53.67;;;16.63;;
37851;SDS011;23691;52.486;4.650;2022-12-18T04:16:27;44.85;;;15.10;;
37851;SDS011;23691;52.486;4.650;2022-12-18T04:18:53;43.05;;;15.35;;
37851;SDS011;23691;52.486;4.650;2022-12-18T04:21:19;46.70;;;15.98;;
37851;SDS011;23691;52.486;4.650;2022-12-18T04:23:45;43.80;;;16.52;;
37851;SDS011;23691;52.486;4.650;2022-12-18T04:26:10;47.20;;;15.57;;
37851;SDS011;23691;52.486;4.650;2022-12-18T04:28:36;49.72;;;15.52;;
37851;SDS011;23691;52.486;4.650;2022-12-18T04:31:01;44.40;;;14.75;;
37851;SDS011;23691;52.486;4.650;2022-12-18T04:33:27;38.60;;;15.70;;
37851;SDS011;23691;52.486;4.650;2022-12-18T04:35:53;39.80;;;13.15;;
37851;SDS011;23691;52.486;4.650;2022-12-18T04:38:20;41.88;;;15.35;;
37851;SDS011;23691;52.486;4.650;2022-12-18T04:40:45;43.40;;;15.50;;
37851;SDS011;23691;52.486;4.650;2022-12-18T04:43:11;40.17;;;13.82;;
37851;SDS011;23691;52.486;4.650;2022-12-18T04:45:36;42.75;;;15.68;;
37851;SDS011;23691;52.486;4.650;2022-12-18T04:48:02;44.35;;;15.15;;
37851;SDS011;23691;52.486;4.650;2022-12-18T04:50:28;45.65;;;13.98;;
37851;SDS011;23691;52.486;4.650;2022-12-18T04:52:54;40.58;;;14.40;;
37851;SDS011;23691;52.486;4.650;2022-12-18T04:55:20;40.63;;;14.40;;
37851;SDS011;23691;52.486;4.650;2022-12-18T04:57:46;46.67;;;14.93;;
37851;SDS011;23691;52.486;4.650;2022-12-18T05:00:11;43.65;;;15.20;;
37851;SDS011;23691;52.486;4.650;2022-12-18T05:02:37;50.13;;;16.45;;
37851;SDS011;23691;52.486;4.650;2022-12-18T05:05:03;41.65;;;14.43;;
37851;SDS011;23691;52.486;4.650;2022-12-18T05:07:29;37.92;;;14.38;;
37851;SDS011;23691;52.486;4.650;2022-12-18T05:09:54;39.65;;;14.23;;
37851;SDS011;23691;52.486;4.650;2022-12-18T05:12:19;42.00;;;14.48;;
37851;SDS011;23691;52.486;4.650;2022-12-18T05:14:51;38.50;;;13.32;;
37851;SDS011;23691;52.486;4.650;2022-12-18T05:17:16;43.83;;;13.88;;
37851;SDS011;23691;52.486;4.650;2022-12-18T05:19:42;38.78;;;14.63;;
37851;SDS011;23691;52.486;4.650;2022-12-18T05:22:07;45.10;;;14.98;;
37851;SDS011;23691;52.486;4.650;2022-12-18T05:24:33;45.75;;;15.10;;
37851;SDS011;23691;52.486;4.650;2022-12-18T05:26:59;38.28;;;14.13;;
37851;SDS011;23691;52.486;4.650;2022-12-18T05:29:25;38.03;;;14.57;;
37851;SDS011;23691;52.486;4.650;2022-12-18T05:31:50;37.78;;;12.93;;
37851;SDS011;23691;52.486;4.650;2022-12-18T05:34:15;47.05;;;16.35;;
37851;SDS011;23691;52.486;4.650;2022-12-18T05:36:41;37.30;;;14.57;;
37851;SDS011;23691;52.486;4.650;2022-12-18T05:39:06;41.80;;;15.75;;
37851;SDS011;23691;52.486;4.650;2022-12-18T05:41:32;42.03;;;15.00;;
37851;SDS011;23691;52.486;4.650;2022-12-18T05:43:57;42.47;;;14.70;;
37851;SDS011;23691;52.486;4.650;2022-12-18T05:46:23;47.42;;;15.57;;
37851;SDS011;23691;52.486;4.650;2022-12-18T05:48:49;39.95;;;15.90;;
37851;SDS011;23691;52.486;4.650;2022-12-18T05:51:16;35.75;;;13.35;;
37851;SDS011;23691;52.486;4.650;2022-12-18T05:53:43;43.75;;;15.10;;
37851;SDS011;23691;52.486;4.650;2022-12-18T05:56:10;41.40;;;15.10;;
37851;SDS011;23691;52.486;4.650;2022-12-18T06:01:19;41.40;;;14.30;;
37851;SDS011;23691;52.486;4.650;2022-12-18T06:03:46;47.30;;;17.27;;
37851;SDS011;23691;52.486;4.650;2022-12-18T06:06:12;44.90;;;15.48;;
37851;SDS011;23691;52.486;4.650;2022-12-18T06:08:48;43.45;;;15.95;;
37851;SDS011;23691;52.486;4.650;2022-12-18T06:11:19;44.50;;;15.40;;
37851;SDS011;23691;52.486;4.650;2022-12-18T06:13:50;42.55;;;16.27;;
37851;SDS011;23691;52.486;4.650;2022-12-18T06:16:19;45.53;;;15.88;;
37851;SDS011;23691;52.486;4.650;2022-12-18T06:18:45;42.13;;;15.95;;
37851;SDS011;23691;52.486;4.650;2022-12-18T06:21:11;40.63;;;15.25;;
37851;SDS011;23691;52.486;4.650;2022-12-18T06:23:36;45.63;;;15.55;;
37851;SDS011;23691;52.486;4.650;2022-12-18T06:26:06;41.50;;;15.45;;
37851;SDS011;23691;52.486;4.650;2022-12-18T06:28:36;43.88;;;16.35;;
37851;SDS011;23691;52.486;4.650;2022-12-18T06:31:02;41.35;;;15.07;;
37851;SDS011;23691;52.486;4.650;2022-12-18T06:33:29;41.83;;;15.52;;
37851;SDS011;23691;52.486;4.650;2022-12-18T06:36:28;39.67;;;15.93;;
37851;SDS011;23691;52.486;4.650;2022-12-18T06:38:47;37.60;;;14.20;;
37851;SDS011;23691;52.486;4.650;2022-12-18T06:41:16;45.42;;;15.82;;
37851;SDS011;23691;52.486;4.650;2022-12-18T06:43:43;43.85;;;16.85;;
37851;SDS011;23691;52.486;4.650;2022-12-18T06:46:09;39.72;;;15.50;;
37851;SDS011;23691;52.486;4.650;2022-12-18T06:48:35;41.67;;;16.08;;
37851;SDS011;23691;52.486;4.650;2022-12-18T06:51:01;38.53;;;14.85;;
37851;SDS011;23691;52.486;4.650;2022-12-18T06:53:26;47.75;;;16.85;;
37851;SDS011;23691;52.486;4.650;2022-12-18T06:55:52;39.78;;;15.70;;
37851;SDS011;23691;52.486;4.650;2022-12-18T06:58:18;49.83;;;17.58;;
37851;SDS011;23691;52.486;4.650;2022-12-18T07:00:43;52.35;;;17.55;;
37851;SDS011;23691;52.486;4.650;2022-12-18T07:03:09;45.67;;;16.55;;
37851;SDS011;23691;52.486;4.650;2022-12-18T07:05:39;48.50;;;13.93;;
37851;SDS011;23691;52.486;4.650;2022-12-18T07:08:05;44.00;;;16.52;;
37851;SDS011;23691;52.486;4.650;2022-12-18T07:10:31;44.10;;;16.80;;
37851;SDS011;23691;52.486;4.650;2022-12-18T07:12:56;42.78;;;16.70;;
37851;SDS011;23691;52.486;4.650;2022-12-18T07:15:22;57.50;;;18.20;;
37851;SDS011;23691;52.486;4.650;2022-12-18T07:17:47;39.03;;;15.50;;
37851;SDS011;23691;52.486;4.650;2022-12-18T07:20:12;40.58;;;14.15;;
37851;SDS011;23691;52.486;4.650;2022-12-18T07:22:38;45.33;;;15.77;;
37851;SDS011;23691;52.486;4.650;2022-12-18T07:25:05;40.40;;;15.63;;
37851;SDS011;23691;52.486;4.650;2022-12-18T07:27:31;42.25;;;15.82;;
37851;SDS011;23691;52.486;4.650;2022-12-18T07:29:56;51.90;;;17.13;;
37851;SDS011;23691;52.486;4.650;2022-12-18T07:32:22;49.42;;;16.73;;
37851;SDS011;23691;52.486;4.650;2022-12-18T07:34:47;46.50;;;16.33;;
37851;SDS011;23691;52.486;4.650;2022-12-18T07:37:13;50.75;;;17.33;;
37851;SDS011;23691;52.486;4.650;2022-12-18T07:39:38;48.65;;;16.17;;
37851;SDS011;23691;52.486;4.650;2022-12-18T07:42:04;48.58;;;16.63;;
37851;SDS011;23691;52.486;4.650;2022-12-18T07:44:48;41.75;;;14.25;;
37851;SDS011;23691;52.486;4.650;2022-12-18T07:47:14;48.38;;;16.85;;
37851;SDS011;23691;52.486;4.650;2022-12-18T07:49:40;47.33;;;16.35;;
37851;SDS011;23691;52.486;4.650;2022-12-18T07:52:06;39.53;;;14.57;;
37851;SDS011;23691;52.486;4.650;2022-12-18T07:54:34;41.97;;;16.70;;
37851;SDS011;23691;52.486;4.650;2022-12-18T07:57:00;38.97;;;14.65;;
37851;SDS011;23691;52.486;4.650;2022-12-18T07:59:25;41.13;;;14.15;;
37851;SDS011;23691;52.486;4.650;2022-12-18T08:01:51;39.78;;;13.98;;
37851;SDS011;23691;52.486;4.650;2022-12-18T08:04:16;43.28;;;15.65;;
37851;SDS011;23691;52.486;4.650;2022-12-18T08:06:42;46.55;;;14.82;;
37851;SDS011;23691;52.486;4.650;2022-12-18T08:09:08;42.30;;;14.82;;
37851;SDS011;23691;52.486;4.650;2022-12-18T08:11:37;42.65;;;14.82;;
37851;SDS011;23691;52.486;4.650;2022-12-18T08:14:03;41.45;;;14.57;;
37851;SDS011;23691;52.486;4.650;2022-12-18T08:16:28;34.00;;;12.57;;
37851;SDS011;23691;52.486;4.650;2022-12-18T08:18:55;34.90;;;12.73;;
37851;SDS011;23691;52.486;4.650;2022-12-18T08:21:22;37.80;;;13.40;;
37851;SDS011;23691;52.486;4.650;2022-12-18T08:23:50;35.22;;;13.07;;
37851;SDS011;23691;52.486;4.650;2022-12-18T08:26:16;37.13;;;13.05;;
37851;SDS011;23691;52.486;4.650;2022-12-18T08:28:42;29.27;;;12.52;;
37851;SDS011;23691;52.486;4.650;2022-12-18T08:31:08;35.92;;;14.25;;
37851;SDS011;23691;52.486;4.650;2022-12-18T08:33:34;38.78;;;13.48;;
37851;SDS011;23691;52.486;4.650;2022-12-18T08:36:03;33.15;;;13.77;;
37851;SDS011;23691;52.486;4.650;2022-12-18T08:38:28;33.67;;;13.23;;
37851;SDS011;23691;52.486;4.650;2022-12-18T08:41:01;32.53;;;12.70;;
37851;SDS011;23691;52.486;4.650;2022-12-18T08:43:31;33.78;;;11.85;;
37851;SDS011;23691;52.486;4.650;2022-12-18T08:46:15;27.60;;;11.38;;
37851;SDS011;23691;52.486;4.650;2022-12-18T08:48:41;28.65;;;11.88;;
37851;SDS011;23691;52.486;4.650;2022-12-18T08:51:06;33.53;;;13.73;;
37851;SDS011;23691;52.486;4.650;2022-12-18T08:53:34;36.88;;;13.10;;
37851;SDS011;23691;52.486;4.650;2022-12-18T08:56:00;26.48;;;11.93;;
37851;SDS011;23691;52.486;4.650;2022-12-18T08:58:25;28.58;;;11.90;;
37851;SDS011;23691;52.486;4.650;2022-12-18T09:00:50;31.02;;;11.85;;
37851;SDS011;23691;52.486;4.650;2022-12-18T09:03:17;29.95;;;11.55;;
37851;SDS011;23691;52.486;4.650;2022-12-18T09:05:43;25.75;;;10.45;;
37851;SDS011;23691;52.486;4.650;2022-12-18T09:08:14;25.80;;;11.23;;
37851;SDS011;23691;52.486;4.650;2022-12-18T09:10:42;25.13;;;11.23;;
37851;SDS011;23691;52.486;4.650;2022-12-18T09:13:09;22.63;;;9.90;;
37851;SDS011;23691;52.486;4.650;2022-12-18T09:15:46;22.90;;;10.05;;
37851;SDS011;23691;52.486;4.650;2022-12-18T09:20:40;19.77;;;8.07;;
37851;SDS011;23691;52.486;4.650;2022-12-18T09:23:05;24.67;;;8.95;;
37851;SDS011;23691;52.486;4.650;2022-12-18T09:25:31;21.50;;;8.93;;
37851;SDS011;23691;52.486;4.650;2022-12-18T09:27:58;19.55;;;8.30;;
37851;SDS011;23691;52.486;4.650;2022-12-18T09:30:24;21.63;;;8.90;;
37851;SDS011;23691;52.486;4.650;2022-12-18T09:32:49;26.05;;;9.65;;
37851;SDS011;23691;52.486;4.650;2022-12-18T09:35:15;23.30;;;9.32;;
37851;SDS011;23691;52.486;4.650;2022-12-18T09:37:40;22.58;;;9.20;;
37851;SDS011;23691;52.486;4.650;2022-12-18T09:40:12;23.85;;;9.25;;
37851;SDS011;23691;52.486;4.650;2022-12-18T09:43:00;20.98;;;9.18;;
37851;SDS011;23691;52.486;4.650;2022-12-18T09:45:35;22.83;;;8.70;;
37851;SDS011;23691;52.486;4.650;2022-12-18T09:48:10;19.88;;;8.90;;
37851;SDS011;23691;52.486;4.650;2022-12-18T09:50:44;24.70;;;9.87;;
37851;SDS011;23691;52.486;4.650;2022-12-18T09:53:19;24.20;;;9.05;;
37851;SDS011;23691;52.486;4.650;2022-12-18T09:55:49;20.73;;;9.63;;
37851;SDS011;23691;52.486;4.650;2022-12-18T10:01:29;21.88;;;8.90;;
37851;SDS011;23691;52.486;4.650;2022-12-18T10:03:55;20.75;;;9.38;;
37851;SDS011;23691;52.486;4.650;2022-12-18T10:08:58;33.85;;;12.68;;
37851;SDS011;23691;52.486;4.650;2022-12-18T10:14:23;45.90;;;15.23;;
37851;SDS011;23691;52.486;4.650;2022-12-18T10:23:00;25.75;;;9.88;;
37851;SDS011;23691;52.486;4.650;2022-12-18T10:25:59;36.22;;;12.57;;
37851;SDS011;23691;52.486;4.650;2022-12-18T10:28:21;58.45;;;17.85;;
37851;SDS011;23691;52.486;4.650;2022-12-18T10:30:48;40.55;;;15.30;;
37851;SDS011;23691;52.486;4.650;2022-12-18T10:33:15;58.08;;;17.95;;
37851;SDS011;23691;52.486;4.650;2022-12-18T10:35:43;54.15;;;16.77;;
37851;SDS011;23691;52.486;4.650;2022-12-18T10:43:14;28.10;;;11.15;;
37851;SDS011;23691;52.486;4.650;2022-12-18T10:45:40;28.38;;;10.85;;
37851;SDS011;23691;52.486;4.650;2022-12-18T10:48:19;23.10;;;9.40;;
37851;SDS011;23691;52.486;4.650;2022-12-18T10:50:49;24.50;;;9.80;;
37851;SDS011;23691;52.486;4.650;2022-12-18T10:53:24;22.75;;;8.90;;
37851;SDS011;23691;52.486;4.650;2022-12-18T10:55:52;22.48;;;9.55;;
37851;SDS011;23691;52.486;4.650;2022-12-18T10:58:24;29.85;;;11.35;;
37851;SDS011;23691;52.486;4.650;2022-12-18T11:01:14;26.30;;;11.25;;
37851;SDS011;23691;52.486;4.650;2022-12-18T11:06:17;38.55;;;13.27;;
37851;SDS011;23691;52.486;4.650;2022-12-18T11:09:32;39.67;;;12.65;;
37851;SDS011;23691;52.486;4.650;2022-12-18T11:11:51;27.48;;;10.23;;
37851;SDS011;23691;52.486;4.650;2022-12-18T11:14:26;23.23;;;9.82;;
37851;SDS011;23691;52.486;4.650;2022-12-18T11:16:54;45.17;;;13.75;;
37851;SDS011;23691;52.486;4.650;2022-12-18T11:19:28;43.23;;;13.63;;
37851;SDS011;23691;52.486;4.650;2022-12-18T11:22:03;32.97;;;13.35;;
37851;SDS011;23691;52.486;4.650;2022-12-18T11:27:22;39.75;;;12.88;;
37851;SDS011;23691;52.486;4.650;2022-12-18T11:29:49;38.38;;;13.90;;
37851;SDS011;23691;52.486;4.650;2022-12-18T11:37:36;34.20;;;14.13;;
37851;SDS011;23691;52.486;4.650;2022-12-18T11:40:14;30.75;;;11.77;;
37851;SDS011;23691;52.486;4.650;2022-12-18T11:42:48;27.20;;;16.23;;
37851;SDS011;23691;52.486;4.650;2022-12-18T11:45:23;22.30;;;10.20;;
37851;SDS011;23691;52.486;4.650;2022-12-18T11:50:53;22.48;;;9.27;;
37851;SDS011;23691;52.486;4.650;2022-12-18T11:53:25;21.92;;;9.52;;
37851;SDS011;23691;52.486;4.650;2022-12-18T11:56:05;20.70;;;9.03;;
37851;SDS011;23691;52.486;4.650;2022-12-18T12:01:51;21.38;;;9.43;;
37851;SDS011;23691;52.486;4.650;2022-12-18T12:07:19;22.52;;;9.40;;
37851;SDS011;23691;52.486;4.650;2022-12-18T12:10:24;21.25;;;9.50;;
37851;SDS011;23691;52.486;4.650;2022-12-18T12:15:44;24.42;;;10.05;;
37851;SDS011;23691;52.486;4.650;2022-12-18T12:23:42;22.70;;;8.98;;
37851;SDS011;23691;52.486;4.650;2022-12-18T12:26:20;21.63;;;9.27;;
37851;SDS011;23691;52.486;4.650;2022-12-18T12:32:19;22.77;;;9.55;;
37851;SDS011;23691;52.486;4.650;2022-12-18T12:34:56;21.83;;;9.27;;
37851;SDS011;23691;52.486;4.650;2022-12-18T12:37:55;23.65;;;9.73;;
37851;SDS011;23691;52.486;4.650;2022-12-18T12:40:31;21.05;;;9.57;;
37851;SDS011;23691;52.486;4.650;2022-12-18T12:43:02;23.70;;;10.73;;
37851;SDS011;23691;52.486;4.650;2022-12-18T12:48:16;25.30;;;11.00;;
37851;SDS011;23691;52.486;4.650;2022-12-18T12:50:46;25.85;;;15.68;;
37851;SDS011;23691;52.486;4.650;2022-12-18T12:53:16;23.92;;;11.30;;
37851;SDS011;23691;52.486;4.650;2022-12-18T12:55:55;22.98;;;10.68;;
37851;SDS011;23691;52.486;4.650;2022-12-18T12:58:29;23.45;;;10.52;;
37851;SDS011;23691;52.486;4.650;2022-12-18T13:03:42;22.88;;;10.32;;
37851;SDS011;23691;52.486;4.650;2022-12-18T13:08:55;23.60;;;10.07;;
37851;SDS011;23691;52.486;4.650;2022-12-18T13:11:35;22.40;;;9.70;;
37851;SDS011;23691;52.486;4.650;2022-12-18T13:17:14;23.10;;;9.35;;
37851;SDS011;23691;52.486;4.650;2022-12-18T13:19:40;21.10;;;9.98;;
37851;SDS011;23691;52.486;4.650;2022-12-18T13:22:12;22.60;;;9.43;;
37851;SDS011;23691;52.486;4.650;2022-12-18T13:24:49;22.50;;;9.27;;
37851;SDS011;23691;52.486;4.650;2022-12-18T13:31:09;27.85;;;15.30;;
37851;SDS011;23691;52.486;4.650;2022-12-18T13:35:39;22.80;;;9.82;;
37851;SDS011;23691;52.486;4.650;2022-12-18T13:41:04;26.35;;;10.23;;
37851;SDS011;23691;52.486;4.650;2022-12-18T13:43:49;20.85;;;9.82;;
37851;SDS011;23691;52.486;4.650;2022-12-18T13:51:59;27.05;;;11.98;;
37851;SDS011;23691;52.486;4.650;2022-12-18T13:54:39;26.30;;;11.23;;
37851;SDS011;23691;52.486;4.650;2022-12-18T13:57:28;24.57;;;11.07;;
37851;SDS011;23691;52.486;4.650;2022-12-18T14:02:47;25.90;;;11.18;;
37851;SDS011;23691;52.486;4.650;2022-12-18T14:05:23;21.98;;;9.88;;
37851;SDS011;23691;52.486;4.650;2022-12-18T14:07:50;29.35;;;11.48;;
37851;SDS011;23691;52.486;4.650;2022-12-18T14:10:17;22.90;;;10.75;;
37851;SDS011;23691;52.486;4.650;2022-12-18T14:12:47;22.77;;;10.77;;
37851;SDS011;23691;52.486;4.650;2022-12-18T14:20:39;19.55;;;8.57;;
37851;SDS011;23691;52.486;4.650;2022-12-18T14:23:32;21.52;;;9.38;;
37851;SDS011;23691;52.486;4.650;2022-12-18T14:26:03;19.88;;;9.00;;
37851;SDS011;23691;52.486;4.650;2022-12-18T14:28:45;20.05;;;8.88;;
37851;SDS011;23691;52.486;4.650;2022-12-18T14:34:03;23.17;;;9.25;;
37851;SDS011;23691;52.486;4.650;2022-12-18T14:36:29;22.08;;;9.85;;
37851;SDS011;23691;52.486;4.650;2022-12-18T14:38:56;24.73;;;11.20;;
37851;SDS011;23691;52.486;4.650;2022-12-18T14:41:22;25.27;;;14.55;;
37851;SDS011;23691;52.486;4.650;2022-12-18T14:43:50;22.00;;;9.05;;
37851;SDS011;23691;52.486;4.650;2022-12-18T14:46:50;22.05;;;9.77;;
37851;SDS011;23691;52.486;4.650;2022-12-18T14:49:24;27.50;;;11.52;;
37851;SDS011;23691;52.486;4.650;2022-12-18T14:51:55;29.00;;;12.25;;
37851;SDS011;23691;52.486;4.650;2022-12-18T14:54:34;65.65;;;20.25;;
37851;SDS011;23691;52.486;4.650;2022-12-18T14:57:14;32.88;;;11.90;;
37851;SDS011;23691;52.486;4.650;2022-12-18T14:59:55;69.82;;;19.35;;
37851;SDS011;23691;52.486;4.650;2022-12-18T15:02:34;35.80;;;13.40;;
37851;SDS011;23691;52.486;4.650;2022-12-18T15:07:53;29.83;;;12.02;;
37851;SDS011;23691;52.486;4.650;2022-12-18T15:10:32;29.88;;;12.10;;
37851;SDS011;23691;52.486;4.650;2022-12-18T15:18:02;27.25;;;10.82;;
37851;SDS011;23691;52.486;4.650;2022-12-18T15:20:31;30.05;;;13.57;;
37851;SDS011;23691;52.486;4.650;2022-12-18T15:23:03;23.85;;;10.15;;
37851;SDS011;23691;52.486;4.650;2022-12-18T15:25:34;22.33;;;9.63;;
37851;SDS011;23691;52.486;4.650;2022-12-18T15:28:04;24.00;;;9.13;;
37851;SDS011;23691;52.486;4.650;2022-12-18T15:31:00;27.98;;;11.10;;
37851;SDS011;23691;52.486;4.650;2022-12-18T15:33:40;28.20;;;10.88;;
37851;SDS011;23691;52.486;4.650;2022-12-18T15:36:11;28.90;;;11.00;;
37851;SDS011;23691;52.486;4.650;2022-12-18T15:38:38;21.40;;;9.80;;
37851;SDS011;23691;52.486;4.650;2022-12-18T15:41:03;24.27;;;10.85;;
37851;SDS011;23691;52.486;4.650;2022-12-18T15:43:29;20.42;;;9.38;;
37851;SDS011;23691;52.486;4.650;2022-12-18T15:46:05;22.40;;;10.18;;
37851;SDS011;23691;52.486;4.650;2022-12-18T15:48:34;22.48;;;9.63;;
37851;SDS011;23691;52.486;4.650;2022-12-18T15:51:04;28.15;;;11.38;;
37851;SDS011;23691;52.486;4.650;2022-12-18T15:53:35;29.38;;;11.15;;
37851;SDS011;23691;52.486;4.650;2022-12-18T15:56:01;31.40;;;11.00;;
37851;SDS011;23691;52.486;4.650;2022-12-18T15:58:45;29.85;;;11.45;;
37851;SDS011;23691;52.486;4.650;2022-12-18T16:01:10;25.63;;;10.65;;
37851;SDS011;23691;52.486;4.650;2022-12-18T16:03:36;46.35;;;14.60;;
37851;SDS011;23691;52.486;4.650;2022-12-18T16:06:02;36.97;;;12.07;;
37851;SDS011;23691;52.486;4.650;2022-12-18T16:08:30;47.08;;;15.20;;
37851;SDS011;23691;52.486;4.650;2022-12-18T16:10:59;31.58;;;11.80;;
37851;SDS011;23691;52.486;4.650;2022-12-18T16:13:28;38.22;;;13.35;;
37851;SDS011;23691;52.486;4.650;2022-12-18T16:16:01;48.85;;;23.33;;
37851;SDS011;23691;52.486;4.650;2022-12-18T16:21:02;28.58;;;10.82;;
37851;SDS011;23691;52.486;4.650;2022-12-18T16:23:33;29.13;;;10.45;;
37851;SDS011;23691;52.486;4.650;2022-12-18T16:25:58;31.90;;;12.35;;
37851;SDS011;23691;52.486;4.650;2022-12-18T16:28:27;31.15;;;12.95;;
37851;SDS011;23691;52.486;4.650;2022-12-18T16:30:55;28.85;;;11.95;;
37851;SDS011;23691;52.486;4.650;2022-12-18T16:33:21;40.55;;;14.43;;
37851;SDS011;23691;52.486;4.650;2022-12-18T16:35:50;36.38;;;13.57;;
37851;SDS011;23691;52.486;4.650;2022-12-18T16:38:17;40.20;;;13.05;;
37851;SDS011;23691;52.486;4.650;2022-12-18T16:40:42;36.55;;;13.20;;
37851;SDS011;23691;52.486;4.650;2022-12-18T16:43:28;35.45;;;13.70;;
37851;SDS011;23691;52.486;4.650;2022-12-18T16:45:58;55.65;;;16.92;;
37851;SDS011;23691;52.486;4.650;2022-12-18T16:48:27;41.13;;;14.48;;
37851;SDS011;23691;52.486;4.650;2022-12-18T16:51:15;40.10;;;13.35;;
37851;SDS011;23691;52.486;4.650;2022-12-18T16:53:47;52.55;;;17.23;;